• Join FlightAware (Why Join?)
  • Login
  • US Flag 
04:15AM EDT


 

Airport Tracker/Info


-or-


 

Live Flight TrackerFlight Track Log ✈ TSU361 ✈ 28-Jun-2013 ✈ 3GM - KPTK

Flight Track Log - Related Links

Times and Time Zones

All times are in EDT time to prevent confusion due to time zone crossing. See the TSU361 flight status page for this flight to view local times or setup timezone preferences in your user account.

Time Position Orientation Groundspeed Altitude Reporting Facility
EDT Latitude Longitude Course Direction KTS MPH feet Rate Location/Type
02:15PM 43.2894 -86.0567 72° East 203 234 7,600  Level Chicago Center
02:16PM 43.3064 -85.9842 72° East 199 229 9,300 1,620 Climbing Chicago Center
02:17PM 43.3250 -85.9117 71° East 200 230 11,000 840 Climbing Chicago Center
02:18PM 43.3456 -85.8242 72° East 236 272 11,100  Climbing Chicago Center
02:19PM 43.3050 -85.7069 115° Southeast 284 327 11,000 -120 Descending Chicago Center
02:20PM 43.2650 -85.6044 118° Southeast 298 343 10,900 -60 Descending Chicago Center
02:22PM 43.2306 -85.4989 114° Southeast 302 348 10,900  Level Chicago Center
02:23PM 43.1969 -85.3903 113° Southeast 308 354 11,000  Climbing Chicago Center
02:24PM 43.1692 -85.2808 109° East 307 353 11,000  Level Chicago Center
02:25PM 43.1297 -85.1764 117° Southeast 308 354 11,000  Level Chicago Center
02:26PM 43.0919 -85.0711 116° Southeast 309 356 11,000  Level Chicago Center
02:27PM 43.0419 -84.9467 119° Southeast 313 360 11,000  Level Chicago Center
02:28PM 42.9983 -84.8450 120° Southeast 310 357 11,000 -300 Level Chicago Center
02:29PM 42.9606 -84.7381 116° Southeast 313 360 10,500 -540 Descending Chicago Center
02:30PM 42.9217 -84.6258 115° Southeast 326 375 9,900 -300 Descending Chicago Center
02:31PM 42.8825 -84.5164 116° Southeast 324 373 10,000  Climbing Chicago Center
02:32PM 42.8453 -84.4094 115° Southeast 317 365 10,000  Level Chicago Center
02:33PM 42.8053 -84.2817 113° Southeast 308 354 10,100 -360 Climbing Chicago Center
02:34PM 42.7731 -84.1739 112° Southeast 307 353 9,300 -1,260 Descending Chicago Center
02:35PM 42.7481 -84.1064 117° Southeast 323 372 8,100 -1,620 Descending Cleveland Center
02:36PM 42.7056 -83.9994 118° Southeast 309 356 6,800 -1,380 Descending Cleveland Center
02:36PM 42.6664 -83.9125 121° Southeast 314 361 5,500 -960 Descending Cleveland Center
02:37PM 42.6758 -83.7972 84° East 289 333 5,000 -780 Descending Cleveland Center
02:38PM 42.6892 -83.6961 80° East 279 321 4,000 -720 Descending Cleveland Center
02:40PM 42.7086 -83.5897 76° East 253 291 3,500 -480 Descending Cleveland Center
02:41PM 42.7297 -83.5003 72° East 264 304 3,100 -300 Descending Cleveland Center
02:42PM 42.7319 -83.4128 88° East 216 249 3,000 -60 Descending Cleveland Center
02:43PM 42.7061 -83.3550 121° Southeast 198 228 3,000 -540 Level Cleveland Center
02:44PM 42.6642 -83.3644 189° South 137 158 2,000 -1,020 Descending Cleveland Center
02:46PM 42.6500 -83.4167 224° Southwest  Level FlightAware Approximate
02:53PM 42.6656 -83.4205 224° Southwest  Level Estimated